Terminal Aerodrome Forecast
Issued by NWS

Home | Current Version | Previous Version | Text Only | Print | Product List | Glossary Off
Versions: 1 2 3 4 5 6 7 8 9 10 11 12 13 14 15 16 17 18 19

000
FTUS43 KGRB 141120
TAFATW
TAF
KATW 141120Z 1412/1512 19004KT P6SM SCT080 BKN150
     FM141400 19004KT P6SM SCT070 BKN110
      TEMPO 1416/1420 -SHRA BKN040
     FM142000 15005KT P6SM -SHRA BKN035 BKN070
      TEMPO 1421/1501 2SM -TSRA BKN025CB
     FM150200 11003KT P6SM -SHRA OVC035
     FM150800 05003KT P6SM BKN025=

USA.gov is the U.S. government's official web portal to all federal, state and local government web resources and services.